sensor_id;sensor_type;location;lat;lon;timestamp;pressure;altitude;pressure_sealevel;temperature;humidity
42771;BME280;28426;42.872;25.314;2023-04-23T00:01:40;96974.56;;;2.45;89.90
42771;BME280;28426;42.872;25.314;2023-04-23T00:04:14;96962.09;;;2.37;92.74
42771;BME280;28426;42.872;25.314;2023-04-23T00:06:46;96969.03;;;2.48;94.96
42771;BME280;28426;42.872;25.314;2023-04-23T00:09:17;96964.88;;;2.55;95.20
42771;BME280;28426;42.872;25.314;2023-04-23T00:11:49;96959.06;;;2.61;94.83
42771;BME280;28426;42.872;25.314;2023-04-23T00:14:20;96964.88;;;2.65;94.33
42771;BME280;28426;42.872;25.314;2023-04-23T00:16:52;96960.56;;;2.84;100.00
42771;BME280;28426;42.872;25.314;2023-04-23T00:19:25;96966.25;;;2.99;99.03
42771;BME280;28426;42.872;25.314;2023-04-23T00:21:56;96959.72;;;3.13;97.78
42771;BME280;28426;42.872;25.314;2023-04-23T00:24:27;96970.78;;;3.26;96.92
42771;BME280;28426;42.872;25.314;2023-04-23T00:26:58;96965.19;;;3.39;96.15
42771;BME280;28426;42.872;25.314;2023-04-23T00:29:29;96965.03;;;3.51;94.63
42771;BME280;28426;42.872;25.314;2023-04-23T00:32:00;96970.97;;;3.63;93.47
42771;BME280;28426;42.872;25.314;2023-04-23T00:34:33;96964.97;;;3.71;92.50
42771;BME280;28426;42.872;25.314;2023-04-23T00:37:04;96967.56;;;3.81;91.88
42771;BME280;28426;42.872;25.314;2023-04-23T00:39:35;96974.59;;;3.90;91.04
42771;BME280;28426;42.872;25.314;2023-04-23T00:42:07;96973.06;;;3.97;90.08
42771;BME280;28426;42.872;25.314;2023-04-23T00:44:42;96978.41;;;4.05;89.42
42771;BME280;28426;42.872;25.314;2023-04-23T00:47:13;96977.00;;;4.11;88.96
42771;BME280;28426;42.872;25.314;2023-04-23T00:49:47;96977.25;;;4.18;88.44
42771;BME280;28426;42.872;25.314;2023-04-23T00:52:22;96985.56;;;4.23;87.90
42771;BME280;28426;42.872;25.314;2023-04-23T00:54:52;96989.56;;;4.27;87.44
42771;BME280;28426;42.872;25.314;2023-04-23T00:57:23;96987.31;;;4.32;87.20
42771;BME280;28426;42.872;25.314;2023-04-23T00:59:55;96983.69;;;4.34;86.46
42771;BME280;28426;42.872;25.314;2023-04-23T01:02:26;96987.84;;;4.36;86.05
42771;BME280;28426;42.872;25.314;2023-04-23T01:05:02;96979.78;;;4.38;85.80
42771;BME280;28426;42.872;25.314;2023-04-23T01:07:34;96981.31;;;4.40;85.73
42771;BME280;28426;42.872;25.314;2023-04-23T01:10:06;96980.47;;;4.40;85.40
42771;BME280;28426;42.872;25.314;2023-04-23T01:12:37;96980.47;;;4.40;85.06
42771;BME280;28426;42.872;25.314;2023-04-23T01:15:09;96978.47;;;4.42;85.08
42771;BME280;28426;42.872;25.314;2023-04-23T01:17:40;96984.59;;;4.42;84.89
42771;BME280;28426;42.872;25.314;2023-04-23T01:20:13;96980.16;;;4.43;84.66
42771;BME280;28426;42.872;25.314;2023-04-23T01:22:47;96976.81;;;4.41;84.35
42771;BME280;28426;42.872;25.314;2023-04-23T01:25:18;96983.47;;;4.45;84.35
42771;BME280;28426;42.872;25.314;2023-04-23T01:27:48;96980.84;;;4.45;84.17
42771;BME280;28426;42.872;25.314;2023-04-23T01:30:20;96977.22;;;4.46;83.99
42771;BME280;28426;42.872;25.314;2023-04-23T01:32:52;96983.47;;;4.45;83.54
42771;BME280;28426;42.872;25.314;2023-04-23T01:35:24;96981.81;;;4.44;83.54
42771;BME280;28426;42.872;25.314;2023-04-23T01:37:58;96971.25;;;4.44;83.59
42771;BME280;28426;42.872;25.314;2023-04-23T01:40:30;96977.66;;;4.41;83.17
42771;BME280;28426;42.872;25.314;2023-04-23T01:43:01;96975.16;;;4.40;83.27
42771;BME280;28426;42.872;25.314;2023-04-23T01:45:32;96977.97;;;4.38;82.77
42771;BME280;28426;42.872;25.314;2023-04-23T01:48:03;96975.78;;;4.34;82.78
42771;BME280;28426;42.872;25.314;2023-04-23T01:50:34;96970.78;;;4.30;82.51
42771;BME280;28426;42.872;25.314;2023-04-23T01:53:07;96968.44;;;4.27;82.39
42771;BME280;28426;42.872;25.314;2023-04-23T01:55:39;96978.31;;;4.25;82.53
42771;BME280;28426;42.872;25.314;2023-04-23T01:58:10;96968.03;;;4.22;82.42
42771;BME280;28426;42.872;25.314;2023-04-23T02:00:41;96969.31;;;4.18;81.95
42771;BME280;28426;42.872;25.314;2023-04-23T02:03:12;96981.00;;;4.15;82.30
42771;BME280;28426;42.872;25.314;2023-04-23T02:05:43;96976.00;;;4.12;82.03
42771;BME280;28426;42.872;25.314;2023-04-23T02:08:16;96984.13;;;4.11;82.04
42771;BME280;28426;42.872;25.314;2023-04-23T02:10:47;96978.97;;;4.09;82.04
42771;BME280;28426;42.872;25.314;2023-04-23T02:13:18;96983.56;;;4.07;82.34
42771;BME280;28426;42.872;25.314;2023-04-23T02:15:49;96978.59;;;4.04;82.24
42771;BME280;28426;42.872;25.314;2023-04-23T02:18:20;96987.59;;;4.01;82.39
42771;BME280;28426;42.872;25.314;2023-04-23T02:20:51;96980.81;;;3.99;82.47
42771;BME280;28426;42.872;25.314;2023-04-23T02:23:26;96986.41;;;3.96;82.23
42771;BME280;28426;42.872;25.314;2023-04-23T02:25:57;96988.47;;;3.92;82.29
42771;BME280;28426;42.872;25.314;2023-04-23T02:28:28;96985.16;;;3.90;82.54
42771;BME280;28426;42.872;25.314;2023-04-23T02:30:59;96986.16;;;3.89;82.50
42771;BME280;28426;42.872;25.314;2023-04-23T02:33:30;96985.44;;;3.87;82.30
42771;BME280;28426;42.872;25.314;2023-04-23T02:36:00;96976.84;;;3.85;82.68
42771;BME280;28426;42.872;25.314;2023-04-23T02:38:34;96984.06;;;3.83;82.80
42771;BME280;28426;42.872;25.314;2023-04-23T02:41:08;96987.03;;;3.79;83.09
42771;BME280;28426;42.872;25.314;2023-04-23T02:43:39;96983.69;;;3.77;83.18
42771;BME280;28426;42.872;25.314;2023-04-23T02:46:09;96984.81;;;3.75;82.88
42771;BME280;28426;42.872;25.314;2023-04-23T02:48:40;96988.56;;;3.72;82.83
42771;BME280;28426;42.872;25.314;2023-04-23T02:51:12;96985.25;;;3.70;83.35
42771;BME280;28426;42.872;25.314;2023-04-23T02:53:46;96987.34;;;3.66;83.30
42771;BME280;28426;42.872;25.314;2023-04-23T02:56:17;96981.66;;;3.61;82.93
42771;BME280;28426;42.872;25.314;2023-04-23T02:58:48;96991.69;;;3.58;83.17
42771;BME280;28426;42.872;25.314;2023-04-23T03:01:19;96990.31;;;3.53;83.45
42771;BME280;28426;42.872;25.314;2023-04-23T03:03:50;96993.22;;;3.50;83.45
42771;BME280;28426;42.872;25.314;2023-04-23T03:06:22;96991.03;;;3.46;83.79
42771;BME280;28426;42.872;25.314;2023-04-23T03:08:55;96997.25;;;3.45;83.98
42771;BME280;28426;42.872;25.314;2023-04-23T03:11:26;96994.06;;;3.41;83.81
42771;BME280;28426;42.872;25.314;2023-04-23T03:13:57;96998.69;;;3.39;83.94
42771;BME280;28426;42.872;25.314;2023-04-23T03:16:29;96998.94;;;3.36;83.91
42771;BME280;28426;42.872;25.314;2023-04-23T03:19:00;96988.41;;;3.26;83.90
42771;BME280;28426;42.872;25.314;2023-04-23T03:21:31;97001.84;;;3.33;84.02
42771;BME280;28426;42.872;25.314;2023-04-23T03:24:05;97003.97;;;3.29;84.64
42771;BME280;28426;42.872;25.314;2023-04-23T03:26:36;97010.22;;;3.28;84.52
42771;BME280;28426;42.872;25.314;2023-04-23T03:29:08;97011.16;;;3.27;84.41
42771;BME280;28426;42.872;25.314;2023-04-23T03:31:39;97007.16;;;3.23;84.43
42771;BME280;28426;42.872;25.314;2023-04-23T03:34:10;97002.97;;;3.20;84.52
42771;BME280;28426;42.872;25.314;2023-04-23T03:36:41;97006.59;;;3.19;84.38
42771;BME280;28426;42.872;25.314;2023-04-23T03:39:18;97011.88;;;3.19;84.37
42771;BME280;28426;42.872;25.314;2023-04-23T03:41:52;97012.84;;;3.18;84.64
42771;BME280;28426;42.872;25.314;2023-04-23T03:44:28;97012.84;;;3.18;84.48
42771;BME280;28426;42.872;25.314;2023-04-23T03:46:58;97012.84;;;3.18;84.49
42771;BME280;28426;42.872;25.314;2023-04-23T03:49:31;97011.88;;;3.19;84.92
42771;BME280;28426;42.872;25.314;2023-04-23T03:52:03;97006.59;;;3.19;84.80
42771;BME280;28426;42.872;25.314;2023-04-23T03:54:40;97004.81;;;3.20;84.77
42771;BME280;28426;42.872;25.314;2023-04-23T03:57:17;97010.06;;;3.20;84.55
42771;BME280;28426;42.872;25.314;2023-04-23T04:00:09;97010.91;;;3.20;84.58
42771;BME280;28426;42.872;25.314;2023-04-23T04:02:42;97017.84;;;3.21;84.83
42771;BME280;28426;42.872;25.314;2023-04-23T04:05:13;97016.03;;;3.22;84.74
42771;BME280;28426;42.872;25.314;2023-04-23T04:07:45;97021.16;;;3.23;84.64
42771;BME280;28426;42.872;25.314;2023-04-23T04:10:19;97014.78;;;3.26;84.73
42771;BME280;28426;42.872;25.314;2023-04-23T04:12:50;97023.09;;;3.31;85.03
42771;BME280;28426;42.872;25.314;2023-04-23T04:15:22;97017.56;;;3.34;84.76
42771;BME280;28426;42.872;25.314;2023-04-23T04:17:52;97024.06;;;3.40;84.86
42771;BME280;28426;42.872;25.314;2023-04-23T04:20:23;97026.97;;;3.47;84.91
42771;BME280;28426;42.872;25.314;2023-04-23T04:22:55;97019.47;;;3.52;84.98
42771;BME280;28426;42.872;25.314;2023-04-23T04:25:28;97021.38;;;3.60;85.18
42771;BME280;28426;42.872;25.314;2023-04-23T04:27:59;97024.97;;;3.69;84.83
42771;BME280;28426;42.872;25.314;2023-04-23T04:30:31;97025.09;;;3.77;84.83
42771;BME280;28426;42.872;25.314;2023-04-23T04:33:02;97025.06;;;3.87;84.84
42771;BME280;28426;42.872;25.314;2023-04-23T04:35:33;97030.97;;;3.99;84.99
42771;BME280;28426;42.872;25.314;2023-04-23T04:38:04;97032.47;;;4.11;84.75
42771;BME280;28426;42.872;25.314;2023-04-23T04:40:38;97038.38;;;4.23;84.79
42771;BME280;28426;42.872;25.314;2023-04-23T04:43:08;97037.22;;;4.36;84.45
42771;BME280;28426;42.872;25.314;2023-04-23T04:45:39;97034.38;;;4.47;84.32
42771;BME280;28426;42.872;25.314;2023-04-23T04:48:11;97033.16;;;4.60;84.05
42771;BME280;28426;42.872;25.314;2023-04-23T04:50:42;97037.13;;;4.74;84.00
42771;BME280;28426;42.872;25.314;2023-04-23T04:53:13;97037.75;;;4.86;83.92
42771;BME280;28426;42.872;25.314;2023-04-23T04:55:46;97046.13;;;4.99;83.58
42771;BME280;28426;42.872;25.314;2023-04-23T04:58:17;97047.06;;;5.08;83.29
42771;BME280;28426;42.872;25.314;2023-04-23T05:00:48;97043.72;;;5.24;83.70
42771;BME280;28426;42.872;25.314;2023-04-23T05:03:20;97041.25;;;5.49;83.92
42771;BME280;28426;42.872;25.314;2023-04-23T05:05:51;97034.97;;;5.76;84.07
42771;BME280;28426;42.872;25.314;2023-04-23T05:08:22;97032.69;;;6.08;84.35
42771;BME280;28426;42.872;25.314;2023-04-23T05:10:56;97033.84;;;6.49;83.86
42771;BME280;28426;42.872;25.314;2023-04-23T05:13:27;97035.47;;;6.93;83.64
42771;BME280;28426;42.872;25.314;2023-04-23T05:15:58;97031.34;;;7.40;83.10
42771;BME280;28426;42.872;25.314;2023-04-23T05:18:29;97031.28;;;7.90;82.47
42771;BME280;28426;42.872;25.314;2023-04-23T05:21:00;97024.44;;;8.44;81.45
42771;BME280;28426;42.872;25.314;2023-04-23T05:23:30;97032.28;;;9.01;79.99
42771;BME280;28426;42.872;25.314;2023-04-23T05:26:04;97025.84;;;9.57;77.82
42771;BME280;28426;42.872;25.314;2023-04-23T05:28:35;97029.88;;;10.06;75.64
42771;BME280;28426;42.872;25.314;2023-04-23T05:31:06;97016.97;;;10.55;75.43
42771;BME280;28426;42.872;25.314;2023-04-23T05:33:37;97022.81;;;11.03;73.78
42771;BME280;28426;42.872;25.314;2023-04-23T05:36:17;97019.59;;;11.51;72.54
42771;BME280;28426;42.872;25.314;2023-04-23T05:38:47;97029.78;;;11.98;71.44
42771;BME280;28426;42.872;25.314;2023-04-23T05:41:21;97020.97;;;12.39;68.49
42771;BME280;28426;42.872;25.314;2023-04-23T05:43:53;97020.72;;;12.76;67.49
42771;BME280;28426;42.872;25.314;2023-04-23T05:46:25;97025.75;;;13.13;66.72
42771;BME280;28426;42.872;25.314;2023-04-23T05:48:56;97020.88;;;13.51;65.18
42771;BME280;28426;42.872;25.314;2023-04-23T05:51:26;97019.22;;;13.90;64.78
42771;BME280;28426;42.872;25.314;2023-04-23T05:53:57;97024.50;;;14.31;64.10
42771;BME280;28426;42.872;25.314;2023-04-23T05:56:31;97018.13;;;14.77;62.76
42771;BME280;28426;42.872;25.314;2023-04-23T05:59:01;97024.50;;;15.22;61.54
42771;BME280;28426;42.872;25.314;2023-04-23T06:01:32;97015.09;;;15.64;60.70
42771;BME280;28426;42.872;25.314;2023-04-23T06:04:03;97015.94;;;16.08;59.46
42771;BME280;28426;42.872;25.314;2023-04-23T06:06:34;97011.19;;;16.48;57.62
42771;BME280;28426;42.872;25.314;2023-04-23T06:09:05;97017.56;;;16.84;56.71
42771;BME280;28426;42.872;25.314;2023-04-23T06:11:39;97018.03;;;17.12;55.33
42771;BME280;28426;42.872;25.314;2023-04-23T06:14:10;97020.22;;;17.34;55.55
42771;BME280;28426;42.872;25.314;2023-04-23T06:16:41;97018.63;;;17.57;53.93
42771;BME280;28426;42.872;25.314;2023-04-23T06:19:12;97016.78;;;17.81;53.70
42771;BME280;28426;42.872;25.314;2023-04-23T06:21:43;97018.78;;;17.98;52.22
42771;BME280;28426;42.872;25.314;2023-04-23T06:24:14;97012.09;;;18.12;51.17
42771;BME280;28426;42.872;25.314;2023-04-23T06:26:47;97018.88;;;18.27;50.38
42771;BME280;28426;42.872;25.314;2023-04-23T06:29:20;97012.06;;;18.48;50.39
42771;BME280;28426;42.872;25.314;2023-04-23T06:32:00;97010.97;;;18.61;49.35
42771;BME280;28426;42.872;25.314;2023-04-23T06:34:31;97018.84;;;18.92;50.34
42771;BME280;28426;42.872;25.314;2023-04-23T06:37:08;97009.78;;;19.27;49.08
42771;BME280;28426;42.872;25.314;2023-04-23T06:39:38;97005.69;;;19.42;47.97
42771;BME280;28426;42.872;25.314;2023-04-23T06:42:12;97003.50;;;19.56;46.78
42771;BME280;28426;42.872;25.314;2023-04-23T06:44:49;97006.72;;;19.70;46.26
42771;BME280;28426;42.872;25.314;2023-04-23T06:47:19;97001.34;;;19.92;46.62
42771;BME280;28426;42.872;25.314;2023-04-23T06:49:50;96992.34;;;20.26;46.28
42771;BME280;28426;42.872;25.314;2023-04-23T06:52:21;96990.28;;;20.56;45.10
42771;BME280;28426;42.872;25.314;2023-04-23T06:54:52;96995.06;;;20.93;44.87
42771;BME280;28426;42.872;25.314;2023-04-23T06:57:25;97000.63;;;21.36;43.05
42771;BME280;28426;42.872;25.314;2023-04-23T06:59:56;96996.81;;;21.65;42.14
42771;BME280;28426;42.872;25.314;2023-04-23T07:02:34;97000.75;;;21.79;40.96
42771;BME280;28426;42.872;25.314;2023-04-23T07:05:05;96997.66;;;22.03;40.38
42771;BME280;28426;42.872;25.314;2023-04-23T07:07:37;96996.75;;;22.41;40.23
42771;BME280;28426;42.872;25.314;2023-04-23T07:10:10;96994.78;;;22.79;38.71
42771;BME280;28426;42.872;25.314;2023-04-23T07:12:48;96994.53;;;23.02;37.54
42771;BME280;28426;42.872;25.314;2023-04-23T07:15:19;96999.75;;;23.19;37.12
42771;BME280;28426;42.872;25.314;2023-04-23T07:17:50;96998.72;;;23.46;36.67
42771;BME280;28426;42.872;25.314;2023-04-23T07:20:21;96992.44;;;23.82;36.08
42771;BME280;28426;42.872;25.314;2023-04-23T07:22:52;96995.94;;;24.24;35.10
42771;BME280;28426;42.872;25.314;2023-04-23T07:25:23;96993.34;;;24.64;32.88
42771;BME280;28426;42.872;25.314;2023-04-23T07:27:57;96986.91;;;25.05;32.70
42771;BME280;28426;42.872;25.314;2023-04-23T07:30:29;96989.38;;;25.41;30.98
42771;BME280;28426;42.872;25.314;2023-04-23T07:33:00;96994.66;;;25.67;30.35
42771;BME280;28426;42.872;25.314;2023-04-23T07:35:31;96996.09;;;25.89;29.03
42771;BME280;28426;42.872;25.314;2023-04-23T07:38:03;96983.72;;;25.97;28.59
42771;BME280;28426;42.872;25.314;2023-04-23T07:40:33;96984.63;;;26.17;28.99
42771;BME280;28426;42.872;25.314;2023-04-23T07:43:07;96980.28;;;26.40;28.57
42771;BME280;28426;42.872;25.314;2023-04-23T07:45:37;96982.41;;;26.68;28.29
42771;BME280;28426;42.872;25.314;2023-04-23T07:48:08;96976.97;;;26.87;26.71
42771;BME280;28426;42.872;25.314;2023-04-23T07:50:39;96983.47;;;26.91;25.21
42771;BME280;28426;42.872;25.314;2023-04-23T07:53:10;96982.06;;;26.94;22.63
42771;BME280;28426;42.872;25.314;2023-04-23T07:55:41;96972.47;;;27.15;22.52
42771;BME280;28426;42.872;25.314;2023-04-23T07:58:15;96980.13;;;27.52;22.69
42771;BME280;28426;42.872;25.314;2023-04-23T08:00:45;96976.16;;;27.77;20.41
42771;BME280;28426;42.872;25.314;2023-04-23T08:03:16;96976.41;;;27.95;19.60
42771;BME280;28426;42.872;25.314;2023-04-23T08:05:48;96970.19;;;27.75;21.40
42771;BME280;28426;42.872;25.314;2023-04-23T08:08:18;96976.47;;;27.57;21.06
42771;BME280;28426;42.872;25.314;2023-04-23T08:10:49;96973.22;;;27.54;21.29
42771;BME280;28426;42.872;25.314;2023-04-23T08:13:23;96970.00;;;27.52;21.01
42771;BME280;28426;42.872;25.314;2023-04-23T08:15:54;96970.97;;;27.42;22.46
42771;BME280;28426;42.872;25.314;2023-04-23T08:18:24;96964.25;;;27.15;23.09
42771;BME280;28426;42.872;25.314;2023-04-23T08:20:55;96970.06;;;26.89;23.24
42771;BME280;28426;42.872;25.314;2023-04-23T08:23:27;96968.00;;;26.62;23.57
42771;BME280;28426;42.872;25.314;2023-04-23T08:25:57;96968.16;;;26.46;24.39
42771;BME280;28426;42.872;25.314;2023-04-23T08:28:32;96968.16;;;26.46;23.71
42771;BME280;28426;42.872;25.314;2023-04-23T08:31:02;96964.84;;;26.49;24.79
42771;BME280;28426;42.872;25.314;2023-04-23T08:33:51;96969.00;;;26.66;24.94
42771;BME280;28426;42.872;25.314;2023-04-23T08:36:22;96964.13;;;26.82;24.64
42771;BME280;28426;42.872;25.314;2023-04-23T08:38:54;96961.22;;;26.98;24.95
42771;BME280;28426;42.872;25.314;2023-04-23T08:41:29;96959.28;;;27.18;24.15
42771;BME280;28426;42.872;25.314;2023-04-23T08:44:10;96953.81;;;27.18;23.08
42771;BME280;28426;42.872;25.314;2023-04-23T08:46:42;96952.34;;;27.06;22.89
42771;BME280;28426;42.872;25.314;2023-04-23T08:49:15;96952.41;;;26.82;23.39
42771;BME280;28426;42.872;25.314;2023-04-23T08:51:48;96953.03;;;26.73;24.03
42771;BME280;28426;42.872;25.314;2023-04-23T08:54:24;96950.38;;;26.68;23.60
42771;BME280;28426;42.872;25.314;2023-04-23T08:56:57;96949.81;;;26.71;23.71
42771;BME280;28426;42.872;25.314;2023-04-23T08:59:31;96949.81;;;26.71;23.68
42771;BME280;28426;42.872;25.314;2023-04-23T09:02:02;96943.22;;;26.72;24.13
42771;BME280;28426;42.872;25.314;2023-04-23T09:04:36;96946.50;;;26.50;21.58
42771;BME280;28426;42.872;25.314;2023-04-23T09:07:07;96948.06;;;26.07;23.64
42771;BME280;28426;42.872;25.314;2023-04-23T09:09:39;96949.97;;;25.47;23.36
42771;BME280;28426;42.872;25.314;2023-04-23T09:12:10;96944.41;;;24.83;23.44
42771;BME280;28426;42.872;25.314;2023-04-23T09:14:44;96940.03;;;24.26;23.78
42771;BME280;28426;42.872;25.314;2023-04-23T09:17:15;96942.84;;;23.80;24.67
42771;BME280;28426;42.872;25.314;2023-04-23T09:19:49;96938.28;;;23.38;25.33
42771;BME280;28426;42.872;25.314;2023-04-23T09:22:39;96940.69;;;23.04;25.69
42771;BME280;28426;42.872;25.314;2023-04-23T09:25:14;96939.53;;;22.73;26.14
42771;BME280;28426;42.872;25.314;2023-04-23T09:27:47;96939.16;;;22.49;26.93
42771;BME280;28426;42.872;25.314;2023-04-23T09:30:21;96933.63;;;22.28;26.44
42771;BME280;28426;42.872;25.314;2023-04-23T09:32:54;96937.66;;;22.10;26.70
42771;BME280;28426;42.872;25.314;2023-04-23T09:35:26;96938.38;;;21.95;27.13
42771;BME280;28426;42.872;25.314;2023-04-23T09:37:57;96940.41;;;21.72;26.86
42771;BME280;28426;42.872;25.314;2023-04-23T09:40:33;96938.09;;;21.53;27.58
42771;BME280;28426;42.872;25.314;2023-04-23T09:43:04;96934.44;;;21.37;27.83
42771;BME280;28426;42.872;25.314;2023-04-23T09:45:46;96922.66;;;21.21;28.08
42771;BME280;28426;42.872;25.314;2023-04-23T09:48:17;96929.66;;;21.17;28.32
42771;BME280;28426;42.872;25.314;2023-04-23T09:50:53;96929.63;;;21.12;28.40
42771;BME280;28426;42.872;25.314;2023-04-23T09:53:25;96930.63;;;21.06;28.61
42771;BME280;28426;42.872;25.314;2023-04-23T09:55:56;96925.16;;;21.00;29.16
42771;BME280;28426;42.872;25.314;2023-04-23T09:58:27;96927.03;;;21.00;28.81
42771;BME280;28426;42.872;25.314;2023-04-23T10:01:08;96925.66;;;20.97;28.92
42771;BME280;28426;42.872;25.314;2023-04-23T10:03:41;96930.81;;;20.94;29.33
42771;BME280;28426;42.872;25.314;2023-04-23T10:06:12;96931.31;;;20.90;29.44
42771;BME280;28426;42.872;25.314;2023-04-23T10:09:04;96920.16;;;20.87;29.20
42771;BME280;28426;42.872;25.314;2023-04-23T10:11:36;96931.75;;;20.82;29.94
42771;BME280;28426;42.872;25.314;2023-04-23T10:14:07;96928.97;;;20.77;29.62
42771;BME280;28426;42.872;25.314;2023-04-23T10:16:43;96933.47;;;20.66;29.86
42771;BME280;28426;42.872;25.314;2023-04-23T10:19:18;96935.19;;;20.50;30.72
42771;BME280;28426;42.872;25.314;2023-04-23T10:21:53;96927.63;;;20.30;30.10
42771;BME280;28426;42.872;25.314;2023-04-23T10:24:51;96933.97;;;20.13;31.36
42771;BME280;28426;42.872;25.314;2023-04-23T10:27:26;96922.41;;;20.01;33.34
42771;BME280;28426;42.872;25.314;2023-04-23T10:30:15;96923.56;;;19.88;32.62
42771;BME280;28426;42.872;25.314;2023-04-23T10:32:49;96914.41;;;19.71;34.43
42771;BME280;28426;42.872;25.314;2023-04-23T10:35:20;96916.53;;;19.69;32.95
42771;BME280;28426;42.872;25.314;2023-04-23T10:37:52;96914.25;;;19.61;34.33
42771;BME280;28426;42.872;25.314;2023-04-23T10:40:28;96913.34;;;19.55;35.12
42771;BME280;28426;42.872;25.314;2023-04-23T10:43:00;96914.59;;;19.47;35.67
42771;BME280;28426;42.872;25.314;2023-04-23T10:45:31;96906.41;;;19.42;35.28
42771;BME280;28426;42.872;25.314;2023-04-23T10:48:04;96898.22;;;19.37;35.05
42771;BME280;28426;42.872;25.314;2023-04-23T10:50:35;96894.91;;;19.35;35.58
42771;BME280;28426;42.872;25.314;2023-04-23T10:53:30;96890.59;;;19.34;34.97
42771;BME280;28426;42.872;25.314;2023-04-23T10:56:05;96893.88;;;19.36;35.01
42771;BME280;28426;42.872;25.314;2023-04-23T10:58:49;96890.66;;;19.39;35.89
42771;BME280;28426;42.872;25.314;2023-04-23T11:01:23;96888.03;;;19.44;35.77
42771;BME280;28426;42.872;25.314;2023-04-23T11:03:57;96881.88;;;19.49;36.11
42771;BME280;28426;42.872;25.314;2023-04-23T11:06:57;96884.41;;;19.56;37.95
42771;BME280;28426;42.872;25.314;2023-04-23T11:09:38;96883.41;;;19.62;37.70
42771;BME280;28426;42.872;25.314;2023-04-23T11:12:12;96877.03;;;19.68;36.93
42771;BME280;28426;42.872;25.314;2023-04-23T11:14:47;96878.97;;;19.73;34.66
42771;BME280;28426;42.872;25.314;2023-04-23T11:17:21;96874.13;;;19.75;34.60
42771;BME280;28426;42.872;25.314;2023-04-23T11:20:09;96871.97;;;19.77;32.19
42771;BME280;28426;42.872;25.314;2023-04-23T11:22:42;96872.75;;;19.72;32.57
42771;BME280;28426;42.872;25.314;2023-04-23T11:25:14;96878.16;;;19.72;32.38
42771;BME280;28426;42.872;25.314;2023-04-23T11:27:46;96881.66;;;19.73;32.42
42771;BME280;28426;42.872;25.314;2023-04-23T11:30:19;96881.41;;;19.74;32.31
42771;BME280;28426;42.872;25.314;2023-04-23T11:32:52;96876.00;;;19.74;32.02
42771;BME280;28426;42.872;25.314;2023-04-23T11:35:26;96876.31;;;19.78;32.15
42771;BME280;28426;42.872;25.314;2023-04-23T11:38:07;96880.50;;;19.86;32.15
42771;BME280;28426;42.872;25.314;2023-04-23T11:40:38;96876.28;;;19.95;32.26
42771;BME280;28426;42.872;25.314;2023-04-23T11:43:09;96872.34;;;20.03;31.88
42771;BME280;28426;42.872;25.314;2023-04-23T11:45:42;96871.06;;;20.11;31.86
42771;BME280;28426;42.872;25.314;2023-04-23T11:48:12;96871.13;;;20.16;31.78
42771;BME280;28426;42.872;25.314;2023-04-23T11:50:46;96871.47;;;20.20;30.60
42771;BME280;28426;42.872;25.314;2023-04-23T11:53:16;96865.22;;;20.19;30.71
42771;BME280;28426;42.872;25.314;2023-04-23T11:55:48;96864.66;;;20.17;30.66
42771;BME280;28426;42.872;25.314;2023-04-23T11:58:18;96861.97;;;20.17;31.19
42771;BME280;28426;42.872;25.314;2023-04-23T12:00:56;96858.66;;;20.15;30.33
42771;BME280;28426;42.872;25.314;2023-04-23T12:03:28;96850.00;;;20.13;30.56
42771;BME280;28426;42.872;25.314;2023-04-23T12:06:02;96847.78;;;20.10;30.91
42771;BME280;28426;42.872;25.314;2023-04-23T12:08:34;96841.81;;;20.08;30.10
42771;BME280;28426;42.872;25.314;2023-04-23T12:11:11;96845.50;;;20.02;29.89
42771;BME280;28426;42.872;25.314;2023-04-23T12:13:41;96841.63;;;19.97;29.88
42771;BME280;28426;42.872;25.314;2023-04-23T12:16:14;96829.66;;;19.93;30.00
42771;BME280;28426;42.872;25.314;2023-04-23T12:18:45;96834.78;;;19.90;30.10
42771;BME280;28426;42.872;25.314;2023-04-23T12:21:18;96828.41;;;19.79;29.52
42771;BME280;28426;42.872;25.314;2023-04-23T12:23:52;96822.63;;;19.70;29.44
42771;BME280;28426;42.872;25.314;2023-04-23T12:26:24;96822.16;;;19.56;29.45
42771;BME280;28426;42.872;25.314;2023-04-23T12:28:57;96810.38;;;19.45;29.38
42771;BME280;28426;42.872;25.314;2023-04-23T12:31:29;96820.00;;;19.36;29.60
42771;BME280;28426;42.872;25.314;2023-04-23T12:34:01;96815.00;;;19.27;28.98
42771;BME280;28426;42.872;25.314;2023-04-23T12:36:36;96807.56;;;19.17;28.81
42771;BME280;28426;42.872;25.314;2023-04-23T12:39:30;96808.88;;;19.15;29.17
42771;BME280;28426;42.872;25.314;2023-04-23T12:42:02;96809.72;;;19.15;29.05
42771;BME280;28426;42.872;25.314;2023-04-23T12:44:35;96799.19;;;19.19;28.79
42771;BME280;28426;42.872;25.314;2023-04-23T12:47:08;96803.28;;;19.21;28.49
42771;BME280;28426;42.872;25.314;2023-04-23T12:49:41;96806.59;;;19.24;28.96
42771;BME280;28426;42.872;25.314;2023-04-23T12:52:15;96802.31;;;19.28;29.77
42771;BME280;28426;42.872;25.314;2023-04-23T12:54:45;96802.88;;;19.30;29.53
42771;BME280;28426;42.872;25.314;2023-04-23T12:57:18;96806.41;;;19.30;29.90
42771;BME280;28426;42.872;25.314;2023-04-23T12:59:51;96802.88;;;19.30;30.29
42771;BME280;28426;42.872;25.314;2023-04-23T13:02:23;96800.69;;;19.27;30.78
42771;BME280;28426;42.872;25.314;2023-04-23T13:04:54;96797.97;;;19.27;30.81
42771;BME280;28426;42.872;25.314;2023-04-23T13:07:32;96803.06;;;19.23;30.50
42771;BME280;28426;42.872;25.314;2023-04-23T13:10:03;96795.94;;;19.17;31.00
42771;BME280;28426;42.872;25.314;2023-04-23T13:12:34;96801.03;;;19.13;31.08
42771;BME280;28426;42.872;25.314;2023-04-23T13:15:06;96796.84;;;19.05;31.19
42771;BME280;28426;42.872;25.314;2023-04-23T13:17:39;96799.13;;;18.97;31.65
42771;BME280;28426;42.872;25.314;2023-04-23T13:20:10;96797.38;;;18.90;31.93
42771;BME280;28426;42.872;25.314;2023-04-23T13:22:44;96807.81;;;18.81;32.04
42771;BME280;28426;42.872;25.314;2023-04-23T13:25:15;96803.88;;;18.72;32.20